sensor_id;sensor_type;location;lat;lon;timestamp;P1;durP1;ratioP1;P2;durP2;ratioP2
4957;SDS011;2494;51.872;9.688;2022-12-08T00:02:06;34.10;;;23.80;;
4957;SDS011;2494;51.872;9.688;2022-12-08T00:04:51;32.40;;;22.90;;
4957;SDS011;2494;51.872;9.688;2022-12-08T00:07:54;35.47;;;23.17;;
4957;SDS011;2494;51.872;9.688;2022-12-08T00:10:57;32.47;;;21.57;;
4957;SDS011;2494;51.872;9.688;2022-12-08T00:13:42;31.83;;;20.90;;
4957;SDS011;2494;51.872;9.688;2022-12-08T00:16:28;28.90;;;21.03;;
4957;SDS011;2494;51.872;9.688;2022-12-08T00:19:13;27.30;;;20.10;;
4957;SDS011;2494;51.872;9.688;2022-12-08T00:21:59;32.43;;;22.13;;
4957;SDS011;2494;51.872;9.688;2022-12-08T00:24:44;32.70;;;21.57;;
4957;SDS011;2494;51.872;9.688;2022-12-08T00:27:30;32.77;;;22.53;;
4957;SDS011;2494;51.872;9.688;2022-12-08T00:30:15;31.93;;;21.97;;
4957;SDS011;2494;51.872;9.688;2022-12-08T00:33:01;31.33;;;22.30;;
4957;SDS011;2494;51.872;9.688;2022-12-08T00:35:46;33.50;;;22.23;;
4957;SDS011;2494;51.872;9.688;2022-12-08T00:38:31;39.27;;;22.57;;
4957;SDS011;2494;51.872;9.688;2022-12-08T00:41:17;35.93;;;23.80;;
4957;SDS011;2494;51.872;9.688;2022-12-08T00:44:23;32.93;;;23.13;;
4957;SDS011;2494;51.872;9.688;2022-12-08T00:47:08;36.60;;;22.93;;
4957;SDS011;2494;51.872;9.688;2022-12-08T00:49:55;36.47;;;23.67;;
4957;SDS011;2494;51.872;9.688;2022-12-08T00:52:40;36.50;;;22.60;;
4957;SDS011;2494;51.872;9.688;2022-12-08T00:55:25;44.53;;;27.13;;
4957;SDS011;2494;51.872;9.688;2022-12-08T00:58:10;34.10;;;23.93;;
4957;SDS011;2494;51.872;9.688;2022-12-08T01:00:55;32.57;;;23.23;;
4957;SDS011;2494;51.872;9.688;2022-12-08T01:03:40;39.47;;;25.07;;
4957;SDS011;2494;51.872;9.688;2022-12-08T01:06:26;36.93;;;25.33;;
4957;SDS011;2494;51.872;9.688;2022-12-08T01:09:11;38.10;;;25.63;;
4957;SDS011;2494;51.872;9.688;2022-12-08T01:11:57;34.70;;;23.53;;
4957;SDS011;2494;51.872;9.688;2022-12-08T01:14:42;37.83;;;23.70;;
4957;SDS011;2494;51.872;9.688;2022-12-08T01:17:27;42.20;;;24.53;;
4957;SDS011;2494;51.872;9.688;2022-12-08T01:20:12;37.73;;;24.00;;
4957;SDS011;2494;51.872;9.688;2022-12-08T01:22:59;39.80;;;25.03;;
4957;SDS011;2494;51.872;9.688;2022-12-08T01:25:44;35.57;;;20.80;;
4957;SDS011;2494;51.872;9.688;2022-12-08T01:28:29;36.37;;;22.13;;
4957;SDS011;2494;51.872;9.688;2022-12-08T01:31:15;33.73;;;22.13;;
4957;SDS011;2494;51.872;9.688;2022-12-08T01:34:00;35.10;;;23.03;;
4957;SDS011;2494;51.872;9.688;2022-12-08T01:36:45;36.10;;;22.40;;
4957;SDS011;2494;51.872;9.688;2022-12-08T01:39:32;36.93;;;20.73;;
4957;SDS011;2494;51.872;9.688;2022-12-08T01:42:19;33.60;;;22.30;;
4957;SDS011;2494;51.872;9.688;2022-12-08T01:45:06;36.23;;;24.00;;
4957;SDS011;2494;51.872;9.688;2022-12-08T01:47:52;41.07;;;23.53;;
4957;SDS011;2494;51.872;9.688;2022-12-08T01:50:38;36.03;;;21.37;;
4957;SDS011;2494;51.872;9.688;2022-12-08T01:53:25;33.33;;;22.07;;
4957;SDS011;2494;51.872;9.688;2022-12-08T01:56:14;37.77;;;22.10;;
4957;SDS011;2494;51.872;9.688;2022-12-08T01:59:02;39.50;;;23.83;;
4957;SDS011;2494;51.872;9.688;2022-12-08T02:01:47;34.63;;;22.50;;
4957;SDS011;2494;51.872;9.688;2022-12-08T02:04:32;32.00;;;21.27;;
4957;SDS011;2494;51.872;9.688;2022-12-08T02:07:17;35.33;;;20.73;;
4957;SDS011;2494;51.872;9.688;2022-12-08T02:10:02;36.77;;;22.80;;
4957;SDS011;2494;51.872;9.688;2022-12-08T02:12:49;31.00;;;21.53;;
4957;SDS011;2494;51.872;9.688;2022-12-08T02:15:36;31.63;;;20.20;;
4957;SDS011;2494;51.872;9.688;2022-12-08T02:18:26;31.27;;;19.67;;
4957;SDS011;2494;51.872;9.688;2022-12-08T02:21:17;33.70;;;20.87;;
4957;SDS011;2494;51.872;9.688;2022-12-08T02:24:07;31.70;;;20.40;;
4957;SDS011;2494;51.872;9.688;2022-12-08T02:27:09;29.43;;;19.90;;
4957;SDS011;2494;51.872;9.688;2022-12-08T02:30:14;33.37;;;21.10;;
4957;SDS011;2494;51.872;9.688;2022-12-08T02:36:08;28.60;;;18.23;;
4957;SDS011;2494;51.872;9.688;2022-12-08T02:38:59;28.33;;;19.37;;
4957;SDS011;2494;51.872;9.688;2022-12-08T02:41:48;29.90;;;19.50;;
4957;SDS011;2494;51.872;9.688;2022-12-08T02:44:38;33.73;;;21.10;;
4957;SDS011;2494;51.872;9.688;2022-12-08T02:47:25;31.43;;;21.40;;
4957;SDS011;2494;51.872;9.688;2022-12-08T02:50:11;35.90;;;21.33;;
4957;SDS011;2494;51.872;9.688;2022-12-08T02:52:58;38.80;;;21.93;;
4957;SDS011;2494;51.872;9.688;2022-12-08T02:55:45;43.57;;;24.73;;
4957;SDS011;2494;51.872;9.688;2022-12-08T02:58:37;34.83;;;22.37;;
4957;SDS011;2494;51.872;9.688;2022-12-08T03:01:38;35.33;;;21.67;;
4957;SDS011;2494;51.872;9.688;2022-12-08T03:04:31;38.63;;;21.47;;
4957;SDS011;2494;51.872;9.688;2022-12-08T03:07:20;33.07;;;22.43;;
4957;SDS011;2494;51.872;9.688;2022-12-08T03:10:09;36.17;;;20.77;;
4957;SDS011;2494;51.872;9.688;2022-12-08T03:12:55;32.50;;;22.07;;
4957;SDS011;2494;51.872;9.688;2022-12-08T03:15:44;37.80;;;22.40;;
4957;SDS011;2494;51.872;9.688;2022-12-08T03:18:31;32.27;;;20.30;;
4957;SDS011;2494;51.872;9.688;2022-12-08T03:21:17;32.87;;;20.43;;
4957;SDS011;2494;51.872;9.688;2022-12-08T03:24:04;42.13;;;23.37;;
4957;SDS011;2494;51.872;9.688;2022-12-08T03:26:53;31.80;;;21.90;;
4957;SDS011;2494;51.872;9.688;2022-12-08T03:29:40;36.50;;;23.13;;
4957;SDS011;2494;51.872;9.688;2022-12-08T03:32:26;40.33;;;20.00;;
4957;SDS011;2494;51.872;9.688;2022-12-08T03:35:12;31.47;;;21.40;;
4957;SDS011;2494;51.872;9.688;2022-12-08T03:38:02;32.97;;;20.73;;
4957;SDS011;2494;51.872;9.688;2022-12-08T03:40:47;29.80;;;20.13;;
4957;SDS011;2494;51.872;9.688;2022-12-08T03:43:54;27.93;;;18.17;;
4957;SDS011;2494;51.872;9.688;2022-12-08T03:46:40;28.80;;;18.50;;
4957;SDS011;2494;51.872;9.688;2022-12-08T03:49:25;31.67;;;19.00;;
4957;SDS011;2494;51.872;9.688;2022-12-08T03:52:11;29.67;;;18.87;;
4957;SDS011;2494;51.872;9.688;2022-12-08T03:54:55;31.37;;;19.43;;
4957;SDS011;2494;51.872;9.688;2022-12-08T03:57:41;31.07;;;19.80;;
4957;SDS011;2494;51.872;9.688;2022-12-08T04:00:27;33.57;;;17.50;;
4957;SDS011;2494;51.872;9.688;2022-12-08T04:03:12;25.40;;;17.40;;
4957;SDS011;2494;51.872;9.688;2022-12-08T04:05:57;21.50;;;14.30;;
4957;SDS011;2494;51.872;9.688;2022-12-08T04:08:42;25.87;;;16.67;;
4957;SDS011;2494;51.872;9.688;2022-12-08T04:11:26;20.20;;;15.13;;
4957;SDS011;2494;51.872;9.688;2022-12-08T04:14:11;20.03;;;13.63;;
4957;SDS011;2494;51.872;9.688;2022-12-08T04:16:58;20.93;;;14.53;;
4957;SDS011;2494;51.872;9.688;2022-12-08T04:19:43;20.87;;;14.90;;
4957;SDS011;2494;51.872;9.688;2022-12-08T04:22:28;21.60;;;15.87;;
4957;SDS011;2494;51.872;9.688;2022-12-08T04:25:13;26.47;;;15.03;;
4957;SDS011;2494;51.872;9.688;2022-12-08T04:27:58;16.10;;;13.00;;
4957;SDS011;2494;51.872;9.688;2022-12-08T04:30:42;19.20;;;13.90;;
4957;SDS011;2494;51.872;9.688;2022-12-08T04:33:29;22.23;;;14.90;;
4957;SDS011;2494;51.872;9.688;2022-12-08T04:36:14;20.73;;;13.43;;
4957;SDS011;2494;51.872;9.688;2022-12-08T04:38:59;21.00;;;14.63;;
4957;SDS011;2494;51.872;9.688;2022-12-08T04:41:44;20.17;;;12.77;;
4957;SDS011;2494;51.872;9.688;2022-12-08T04:44:29;24.60;;;13.73;;
4957;SDS011;2494;51.872;9.688;2022-12-08T04:47:14;16.93;;;12.90;;
4957;SDS011;2494;51.872;9.688;2022-12-08T04:50:00;16.63;;;13.70;;
4957;SDS011;2494;51.872;9.688;2022-12-08T04:52:45;16.33;;;11.90;;
4957;SDS011;2494;51.872;9.688;2022-12-08T04:55:30;17.20;;;13.00;;
4957;SDS011;2494;51.872;9.688;2022-12-08T04:58:16;21.50;;;14.60;;
4957;SDS011;2494;51.872;9.688;2022-12-08T05:01:01;16.23;;;11.50;;
4957;SDS011;2494;51.872;9.688;2022-12-08T05:03:46;19.27;;;12.90;;
4957;SDS011;2494;51.872;9.688;2022-12-08T05:06:32;18.97;;;12.60;;
4957;SDS011;2494;51.872;9.688;2022-12-08T05:09:17;18.93;;;12.73;;
4957;SDS011;2494;51.872;9.688;2022-12-08T05:12:03;18.80;;;13.50;;
4957;SDS011;2494;51.872;9.688;2022-12-08T05:14:48;16.90;;;12.37;;
4957;SDS011;2494;51.872;9.688;2022-12-08T05:17:33;19.70;;;12.30;;
4957;SDS011;2494;51.872;9.688;2022-12-08T05:20:18;18.43;;;11.10;;
4957;SDS011;2494;51.872;9.688;2022-12-08T05:23:04;23.27;;;13.67;;
4957;SDS011;2494;51.872;9.688;2022-12-08T05:25:50;18.67;;;13.20;;
4957;SDS011;2494;51.872;9.688;2022-12-08T05:28:35;19.27;;;13.20;;
4957;SDS011;2494;51.872;9.688;2022-12-08T05:31:20;19.17;;;13.60;;
4957;SDS011;2494;51.872;9.688;2022-12-08T05:34:05;17.43;;;12.07;;
4957;SDS011;2494;51.872;9.688;2022-12-08T05:36:50;18.30;;;12.27;;
4957;SDS011;2494;51.872;9.688;2022-12-08T05:39:37;14.67;;;12.00;;
4957;SDS011;2494;51.872;9.688;2022-12-08T05:42:21;18.93;;;12.70;;
4957;SDS011;2494;51.872;9.688;2022-12-08T05:45:07;18.03;;;14.13;;
4957;SDS011;2494;51.872;9.688;2022-12-08T05:47:52;17.80;;;13.30;;
4957;SDS011;2494;51.872;9.688;2022-12-08T05:50:38;23.40;;;13.97;;
4957;SDS011;2494;51.872;9.688;2022-12-08T05:53:23;17.80;;;13.70;;
4957;SDS011;2494;51.872;9.688;2022-12-08T05:56:10;20.03;;;13.53;;
4957;SDS011;2494;51.872;9.688;2022-12-08T05:58:55;15.60;;;13.10;;
4957;SDS011;2494;51.872;9.688;2022-12-08T06:01:40;17.23;;;12.33;;
4957;SDS011;2494;51.872;9.688;2022-12-08T06:04:25;14.90;;;11.57;;
4957;SDS011;2494;51.872;9.688;2022-12-08T06:07:10;13.80;;;11.07;;
4957;SDS011;2494;51.872;9.688;2022-12-08T06:09:55;15.57;;;11.57;;
4957;SDS011;2494;51.872;9.688;2022-12-08T06:12:42;13.60;;;10.50;;
4957;SDS011;2494;51.872;9.688;2022-12-08T06:15:27;14.23;;;12.10;;
4957;SDS011;2494;51.872;9.688;2022-12-08T06:18:12;13.70;;;10.60;;
4957;SDS011;2494;51.872;9.688;2022-12-08T06:21:02;14.10;;;10.73;;
4957;SDS011;2494;51.872;9.688;2022-12-08T06:23:48;13.13;;;10.50;;
4957;SDS011;2494;51.872;9.688;2022-12-08T06:26:33;11.00;;;9.77;;
4957;SDS011;2494;51.872;9.688;2022-12-08T06:29:20;12.00;;;9.80;;
4957;SDS011;2494;51.872;9.688;2022-12-08T06:32:05;14.50;;;10.10;;
4957;SDS011;2494;51.872;9.688;2022-12-08T06:34:50;13.10;;;9.27;;
4957;SDS011;2494;51.872;9.688;2022-12-08T06:37:35;12.20;;;9.03;;
4957;SDS011;2494;51.872;9.688;2022-12-08T06:40:20;10.97;;;9.87;;
4957;SDS011;2494;51.872;9.688;2022-12-08T06:43:05;9.63;;;8.40;;
4957;SDS011;2494;51.872;9.688;2022-12-08T06:45:51;10.60;;;9.57;;
4957;SDS011;2494;51.872;9.688;2022-12-08T06:48:37;13.23;;;8.83;;
4957;SDS011;2494;51.872;9.688;2022-12-08T06:51:23;9.50;;;8.50;;
4957;SDS011;2494;51.872;9.688;2022-12-08T06:54:08;10.40;;;9.00;;
4957;SDS011;2494;51.872;9.688;2022-12-08T06:56:53;12.73;;;8.67;;
4957;SDS011;2494;51.872;9.688;2022-12-08T06:59:38;10.17;;;9.00;;
4957;SDS011;2494;51.872;9.688;2022-12-08T07:02:25;9.60;;;8.70;;
4957;SDS011;2494;51.872;9.688;2022-12-08T07:05:09;9.10;;;8.20;;
4957;SDS011;2494;51.872;9.688;2022-12-08T07:07:54;9.60;;;8.60;;
4957;SDS011;2494;51.872;9.688;2022-12-08T07:10:40;8.90;;;7.20;;
4957;SDS011;2494;51.872;9.688;2022-12-08T07:13:25;12.07;;;9.03;;
4957;SDS011;2494;51.872;9.688;2022-12-08T07:16:10;9.80;;;7.63;;
4957;SDS011;2494;51.872;9.688;2022-12-08T07:18:56;8.93;;;8.00;;
4957;SDS011;2494;51.872;9.688;2022-12-08T07:21:42;7.77;;;6.93;;
4957;SDS011;2494;51.872;9.688;2022-12-08T07:24:27;8.13;;;7.33;;
4957;SDS011;2494;51.872;9.688;2022-12-08T07:27:12;10.70;;;8.67;;
4957;SDS011;2494;51.872;9.688;2022-12-08T07:29:57;8.60;;;7.80;;
4957;SDS011;2494;51.872;9.688;2022-12-08T07:32:41;8.27;;;7.43;;
4957;SDS011;2494;51.872;9.688;2022-12-08T07:35:28;7.00;;;6.30;;
4957;SDS011;2494;51.872;9.688;2022-12-08T07:38:13;13.63;;;9.57;;
4957;SDS011;2494;51.872;9.688;2022-12-08T07:40:58;19.20;;;13.00;;
4957;SDS011;2494;51.872;9.688;2022-12-08T07:43:43;26.13;;;18.50;;
4957;SDS011;2494;51.872;9.688;2022-12-08T07:46:28;36.63;;;27.07;;
4957;SDS011;2494;51.872;9.688;2022-12-08T07:49:13;7.60;;;6.90;;
4957;SDS011;2494;51.872;9.688;2022-12-08T07:52:00;19.60;;;13.40;;
4957;SDS011;2494;51.872;9.688;2022-12-08T07:54:45;12.10;;;8.80;;
4957;SDS011;2494;51.872;9.688;2022-12-08T07:57:30;8.90;;;7.37;;
4957;SDS011;2494;51.872;9.688;2022-12-08T08:00:16;7.93;;;6.80;;
4957;SDS011;2494;51.872;9.688;2022-12-08T08:03:01;7.57;;;6.87;;
4957;SDS011;2494;51.872;9.688;2022-12-08T08:05:46;8.87;;;7.97;;
4957;SDS011;2494;51.872;9.688;2022-12-08T08:08:34;7.13;;;6.53;;
4957;SDS011;2494;51.872;9.688;2022-12-08T08:11:19;6.80;;;6.03;;
4957;SDS011;2494;51.872;9.688;2022-12-08T08:14:04;6.90;;;6.03;;
4957;SDS011;2494;51.872;9.688;2022-12-08T08:16:49;8.07;;;6.50;;
4957;SDS011;2494;51.872;9.688;2022-12-08T08:19:34;11.00;;;9.80;;
4957;SDS011;2494;51.872;9.688;2022-12-08T08:22:20;7.17;;;6.47;;
4957;SDS011;2494;51.872;9.688;2022-12-08T08:25:06;6.93;;;6.30;;
4957;SDS011;2494;51.872;9.688;2022-12-08T08:27:52;7.63;;;6.70;;
4957;SDS011;2494;51.872;9.688;2022-12-08T08:30:38;6.90;;;6.20;;
4957;SDS011;2494;51.872;9.688;2022-12-08T08:33:23;8.80;;;6.77;;
4957;SDS011;2494;51.872;9.688;2022-12-08T08:36:09;8.63;;;7.30;;
4957;SDS011;2494;51.872;9.688;2022-12-08T08:38:54;9.73;;;8.77;;
4957;SDS011;2494;51.872;9.688;2022-12-08T08:41:40;8.07;;;7.27;;
4957;SDS011;2494;51.872;9.688;2022-12-08T08:44:25;9.40;;;8.50;;
4957;SDS011;2494;51.872;9.688;2022-12-08T08:47:11;8.00;;;6.63;;
4957;SDS011;2494;51.872;9.688;2022-12-08T08:49:56;9.37;;;8.43;;
4957;SDS011;2494;51.872;9.688;2022-12-08T08:52:41;10.40;;;9.30;;
4957;SDS011;2494;51.872;9.688;2022-12-08T08:55:28;9.13;;;8.23;;
4957;SDS011;2494;51.872;9.688;2022-12-08T08:58:14;10.90;;;8.30;;
4957;SDS011;2494;51.872;9.688;2022-12-08T09:00:59;8.97;;;8.07;;
4957;SDS011;2494;51.872;9.688;2022-12-08T09:03:45;9.27;;;8.20;;
4957;SDS011;2494;51.872;9.688;2022-12-08T09:06:31;8.13;;;7.33;;
4957;SDS011;2494;51.872;9.688;2022-12-08T09:09:16;8.73;;;8.03;;
4957;SDS011;2494;51.872;9.688;2022-12-08T09:12:01;9.43;;;8.30;;
4957;SDS011;2494;51.872;9.688;2022-12-08T09:14:48;10.40;;;9.30;;
4957;SDS011;2494;51.872;9.688;2022-12-08T09:17:33;11.77;;;8.67;;
4957;SDS011;2494;51.872;9.688;2022-12-08T09:20:19;8.23;;;7.13;;
4957;SDS011;2494;51.872;9.688;2022-12-08T09:23:04;13.47;;;11.97;;
4957;SDS011;2494;51.872;9.688;2022-12-08T09:25:49;10.60;;;8.07;;
4957;SDS011;2494;51.872;9.688;2022-12-08T09:28:35;9.90;;;8.50;;
4957;SDS011;2494;51.872;9.688;2022-12-08T09:31:22;13.77;;;10.40;;
4957;SDS011;2494;51.872;9.688;2022-12-08T09:34:09;9.10;;;8.10;;
4957;SDS011;2494;51.872;9.688;2022-12-08T09:36:56;7.73;;;5.53;;
4957;SDS011;2494;51.872;9.688;2022-12-08T09:39:41;9.00;;;7.00;;
4957;SDS011;2494;51.872;9.688;2022-12-08T09:42:29;7.47;;;6.70;;
4957;SDS011;2494;51.872;9.688;2022-12-08T09:45:15;10.93;;;7.40;;
4957;SDS011;2494;51.872;9.688;2022-12-08T09:48:04;10.13;;;8.13;;
4957;SDS011;2494;51.872;9.688;2022-12-08T09:50:50;6.10;;;5.60;;
4957;SDS011;2494;51.872;9.688;2022-12-08T09:53:38;8.97;;;6.80;;
4957;SDS011;2494;51.872;9.688;2022-12-08T09:56:26;5.50;;;5.00;;
4957;SDS011;2494;51.872;9.688;2022-12-08T09:59:20;5.70;;;5.13;;
4957;SDS011;2494;51.872;9.688;2022-12-08T10:02:08;6.77;;;6.07;;
4957;SDS011;2494;51.872;9.688;2022-12-08T10:04:58;4.80;;;4.43;;
4957;SDS011;2494;51.872;9.688;2022-12-08T10:07:44;5.43;;;4.90;;
4957;SDS011;2494;51.872;9.688;2022-12-08T10:10:31;5.13;;;4.63;;
4957;SDS011;2494;51.872;9.688;2022-12-08T10:13:21;6.73;;;5.87;;
4957;SDS011;2494;51.872;9.688;2022-12-08T10:16:11;6.13;;;5.50;;
4957;SDS011;2494;51.872;9.688;2022-12-08T10:19:04;5.97;;;5.23;;
4957;SDS011;2494;51.872;9.688;2022-12-08T10:21:55;5.27;;;4.57;;
4957;SDS011;2494;51.872;9.688;2022-12-08T10:24:42;4.93;;;4.50;;
4957;SDS011;2494;51.872;9.688;2022-12-08T10:27:27;5.97;;;5.40;;
4957;SDS011;2494;51.872;9.688;2022-12-08T10:30:14;4.77;;;4.37;;
4957;SDS011;2494;51.872;9.688;2022-12-08T10:32:59;6.73;;;6.13;;
4957;SDS011;2494;51.872;9.688;2022-12-08T10:35:45;6.40;;;5.80;;
4957;SDS011;2494;51.872;9.688;2022-12-08T10:38:31;6.77;;;6.17;;
4957;SDS011;2494;51.872;9.688;2022-12-08T10:41:17;5.80;;;5.20;;
4957;SDS011;2494;51.872;9.688;2022-12-08T10:44:02;10.23;;;9.33;;
4957;SDS011;2494;51.872;9.688;2022-12-08T10:46:47;7.70;;;6.93;;
4957;SDS011;2494;51.872;9.688;2022-12-08T10:49:33;6.80;;;6.20;;
4957;SDS011;2494;51.872;9.688;2022-12-08T10:52:21;7.23;;;6.57;;
4957;SDS011;2494;51.872;9.688;2022-12-08T10:55:13;8.73;;;7.93;;
4957;SDS011;2494;51.872;9.688;2022-12-08T10:57:59;8.90;;;8.10;;
4957;SDS011;2494;51.872;9.688;2022-12-08T11:00:44;7.37;;;6.67;;
4957;SDS011;2494;51.872;9.688;2022-12-08T11:03:30;8.03;;;7.23;;
4957;SDS011;2494;51.872;9.688;2022-12-08T11:06:17;7.47;;;6.70;;
4957;SDS011;2494;51.872;9.688;2022-12-08T11:09:03;7.83;;;7.10;;
4957;SDS011;2494;51.872;9.688;2022-12-08T11:11:51;6.97;;;6.27;;
4957;SDS011;2494;51.872;9.688;2022-12-08T11:14:46;7.57;;;6.83;;
4957;SDS011;2494;51.872;9.688;2022-12-08T11:17:34;8.40;;;6.97;;
4957;SDS011;2494;51.872;9.688;2022-12-08T11:20:22;9.13;;;8.27;;
4957;SDS011;2494;51.872;9.688;2022-12-08T11:23:20;7.70;;;7.00;;
4957;SDS011;2494;51.872;9.688;2022-12-08T11:26:06;7.47;;;6.77;;
4957;SDS011;2494;51.872;9.688;2022-12-08T11:28:56;7.10;;;6.50;;
4957;SDS011;2494;51.872;9.688;2022-12-08T11:31:42;7.17;;;6.50;;
4957;SDS011;2494;51.872;9.688;2022-12-08T11:34:30;6.80;;;6.20;;
4957;SDS011;2494;51.872;9.688;2022-12-08T11:37:16;7.10;;;6.40;;
4957;SDS011;2494;51.872;9.688;2022-12-08T11:40:03;8.20;;;7.40;;
4957;SDS011;2494;51.872;9.688;2022-12-08T11:42:51;6.50;;;5.90;;
4957;SDS011;2494;51.872;9.688;2022-12-08T11:45:39;5.97;;;5.37;;
4957;SDS011;2494;51.872;9.688;2022-12-08T11:48:26;7.40;;;6.70;;
4957;SDS011;2494;51.872;9.688;2022-12-08T11:51:15;10.00;;;8.73;;
4957;SDS011;2494;51.872;9.688;2022-12-08T11:54:12;6.57;;;5.97;;
4957;SDS011;2494;51.872;9.688;2022-12-08T11:57:00;6.43;;;5.57;;
4957;SDS011;2494;51.872;9.688;2022-12-08T11:59:46;6.73;;;6.03;;
4957;SDS011;2494;51.872;9.688;2022-12-08T12:02:34;7.53;;;6.83;;
4957;SDS011;2494;51.872;9.688;2022-12-08T12:05:28;8.70;;;6.77;;
4957;SDS011;2494;51.872;9.688;2022-12-08T12:08:18;6.60;;;6.00;;
4957;SDS011;2494;51.872;9.688;2022-12-08T12:11:08;6.10;;;5.60;;
4957;SDS011;2494;51.872;9.688;2022-12-08T12:14:20;5.47;;;5.07;;
4957;SDS011;2494;51.872;9.688;2022-12-08T12:17:17;9.73;;;6.90;;
4957;SDS011;2494;51.872;9.688;2022-12-08T12:20:11;8.17;;;7.47;;
4957;SDS011;2494;51.872;9.688;2022-12-08T12:22:59;7.10;;;6.53;;
4957;SDS011;2494;51.872;9.688;2022-12-08T12:25:48;7.63;;;6.83;;
4957;SDS011;2494;51.872;9.688;2022-12-08T12:28:37;9.63;;;8.63;;
4957;SDS011;2494;51.872;9.688;2022-12-08T12:31:24;7.67;;;6.97;;
4957;SDS011;2494;51.872;9.688;2022-12-08T12:34:14;7.03;;;6.20;;
4957;SDS011;2494;51.872;9.688;2022-12-08T12:37:04;6.20;;;5.70;;
4957;SDS011;2494;51.872;9.688;2022-12-08T12:39:53;6.40;;;5.80;;
4957;SDS011;2494;51.872;9.688;2022-12-08T12:42:40;7.27;;;6.47;;
4957;SDS011;2494;51.872;9.688;2022-12-08T12:45:28;7.70;;;6.53;;
4957;SDS011;2494;51.872;9.688;2022-12-08T12:48:23;7.73;;;6.13;;
4957;SDS011;2494;51.872;9.688;2022-12-08T12:54:30;7.60;;;6.87;;
4957;SDS011;2494;51.872;9.688;2022-12-08T12:57:20;5.87;;;5.37;;
4957;SDS011;2494;51.872;9.688;2022-12-08T13:00:06;7.47;;;6.20;;
4957;SDS011;2494;51.872;9.688;2022-12-08T13:02:52;7.80;;;6.53;;
4957;SDS011;2494;51.872;9.688;2022-12-08T13:05:44;7.10;;;6.50;;
4957;SDS011;2494;51.872;9.688;2022-12-08T13:08:31;6.80;;;6.20;;
4957;SDS011;2494;51.872;9.688;2022-12-08T13:11:18;5.90;;;5.40;;
4957;SDS011;2494;51.872;9.688;2022-12-08T13:14:04;6.60;;;6.00;;
4957;SDS011;2494;51.872;9.688;2022-12-08T13:16:49;6.70;;;5.77;;
4957;SDS011;2494;51.872;9.688;2022-12-08T13:19:38;7.27;;;6.57;;
4957;SDS011;2494;51.872;9.688;2022-12-08T13:25:44;5.57;;;5.10;;
4957;SDS011;2494;51.872;9.688;2022-12-08T13:28:31;7.70;;;6.97;;
4957;SDS011;2494;51.872;9.688;2022-12-08T13:31:29;5.93;;;5.40;;
4957;SDS011;2494;51.872;9.688;2022-12-08T13:34:20;7.50;;;6.73;;
4957;SDS011;2494;51.872;9.688;2022-12-08T13:37:12;12.67;;;9.40;;
4957;SDS011;2494;51.872;9.688;2022-12-08T13:40:02;6.40;;;5.80;;
4957;SDS011;2494;51.872;9.688;2022-12-08T13:42:49;5.80;;;5.30;;
4957;SDS011;2494;51.872;9.688;2022-12-08T13:45:43;6.70;;;6.07;;
4957;SDS011;2494;51.872;9.688;2022-12-08T13:48:29;8.07;;;7.23;;
4957;SDS011;2494;51.872;9.688;2022-12-08T13:51:16;7.13;;;5.70;;
4957;SDS011;2494;51.872;9.688;2022-12-08T13:54:03;6.30;;;5.03;;
4957;SDS011;2494;51.872;9.688;2022-12-08T13:56:50;7.87;;;6.17;;
4957;SDS011;2494;51.872;9.688;2022-12-08T13:59:35;8.23;;;6.77;;
4957;SDS011;2494;51.872;9.688;2022-12-08T14:02:29;5.67;;;5.03;;
4957;SDS011;2494;51.872;9.688;2022-12-08T14:05:16;8.60;;;7.37;;
4957;SDS011;2494;51.872;9.688;2022-12-08T14:08:02;6.97;;;6.27;;
4957;SDS011;2494;51.872;9.688;2022-12-08T14:10:49;6.37;;;5.77;;
4957;SDS011;2494;51.872;9.688;2022-12-08T14:13:36;5.33;;;4.83;;
4957;SDS011;2494;51.872;9.688;2022-12-08T14:16:25;6.73;;;6.10;;
4957;SDS011;2494;51.872;9.688;2022-12-08T14:19:16;6.40;;;5.80;;
4957;SDS011;2494;51.872;9.688;2022-12-08T14:22:05;7.73;;;6.87;;
4957;SDS011;2494;51.872;9.688;2022-12-08T14:24:53;14.57;;;8.63;;
4957;SDS011;2494;51.872;9.688;2022-12-08T14:27:38;23.40;;;14.30;;
4957;SDS011;2494;51.872;9.688;2022-12-08T14:30:24;39.73;;;24.33;;
4957;SDS011;2494;51.872;9.688;2022-12-08T14:33:11;18.80;;;14.20;;
4957;SDS011;2494;51.872;9.688;2022-12-08T14:35:58;8.80;;;7.90;;
4957;SDS011;2494;51.872;9.688;2022-12-08T14:38:43;8.67;;;7.77;;
4957;SDS011;2494;51.872;9.688;2022-12-08T14:41:31;7.70;;;6.87;;
4957;SDS011;2494;51.872;9.688;2022-12-08T14:44:20;7.20;;;6.47;;
4957;SDS011;2494;51.872;9.688;2022-12-08T14:47:07;5.70;;;5.20;;
4957;SDS011;2494;51.872;9.688;2022-12-08T14:49:52;6.50;;;5.90;;
4957;SDS011;2494;51.872;9.688;2022-12-08T14:52:42;8.10;;;6.13;;
4957;SDS011;2494;51.872;9.688;2022-12-08T14:55:27;7.33;;;6.60;;
4957;SDS011;2494;51.872;9.688;2022-12-08T14:58:19;6.00;;;5.43;;
4957;SDS011;2494;51.872;9.688;2022-12-08T15:01:05;8.70;;;6.30;;
4957;SDS011;2494;51.872;9.688;2022-12-08T15:03:57;6.77;;;6.07;;
4957;SDS011;2494;51.872;9.688;2022-12-08T15:06:44;9.13;;;7.10;;
4957;SDS011;2494;51.872;9.688;2022-12-08T15:09:34;9.40;;;7.60;;
4957;SDS011;2494;51.872;9.688;2022-12-08T15:12:20;8.80;;;7.87;;
4957;SDS011;2494;51.872;9.688;2022-12-08T15:15:14;8.17;;;7.37;;
4957;SDS011;2494;51.872;9.688;2022-12-08T15:18:01;11.03;;;9.00;;
4957;SDS011;2494;51.872;9.688;2022-12-08T15:20:47;15.70;;;11.37;;
4957;SDS011;2494;51.872;9.688;2022-12-08T15:23:33;12.87;;;9.53;;
4957;SDS011;2494;51.872;9.688;2022-12-08T15:26:24;20.87;;;12.63;;
4957;SDS011;2494;51.872;9.688;2022-12-08T15:29:10;22.50;;;13.63;;
4957;SDS011;2494;51.872;9.688;2022-12-08T15:31:57;12.87;;;9.67;;
4957;SDS011;2494;51.872;9.688;2022-12-08T15:34:42;24.53;;;14.23;;
4957;SDS011;2494;51.872;9.688;2022-12-08T15:37:27;21.90;;;13.63;;
4957;SDS011;2494;51.872;9.688;2022-12-08T15:40:15;17.17;;;12.03;;
4957;SDS011;2494;51.872;9.688;2022-12-08T15:43:02;10.10;;;8.60;;
4957;SDS011;2494;51.872;9.688;2022-12-08T15:45:47;8.37;;;7.47;;
4957;SDS011;2494;51.872;9.688;2022-12-08T15:48:32;9.47;;;7.00;;
4957;SDS011;2494;51.872;9.688;2022-12-08T15:51:17;10.07;;;8.00;;
4957;SDS011;2494;51.872;9.688;2022-12-08T15:54:02;10.83;;;8.60;;
4957;SDS011;2494;51.872;9.688;2022-12-08T15:56:48;14.40;;;11.17;;
4957;SDS011;2494;51.872;9.688;2022-12-08T15:59:35;11.17;;;9.87;;
4957;SDS011;2494;51.872;9.688;2022-12-08T16:02:20;9.87;;;8.70;;
4957;SDS011;2494;51.872;9.688;2022-12-08T16:05:05;10.17;;;9.13;;
4957;SDS011;2494;51.872;9.688;2022-12-08T16:07:50;10.10;;;8.00;;
4957;SDS011;2494;51.872;9.688;2022-12-08T16:10:35;10.00;;;8.73;;
4957;SDS011;2494;51.872;9.688;2022-12-08T16:13:21;9.77;;;8.40;;
4957;SDS011;2494;51.872;9.688;2022-12-08T16:16:26;12.70;;;8.50;;
4957;SDS011;2494;51.872;9.688;2022-12-08T16:19:15;8.77;;;7.87;;
4957;SDS011;2494;51.872;9.688;2022-12-08T16:22:01;8.40;;;7.50;;
4957;SDS011;2494;51.872;9.688;2022-12-08T16:24:46;8.70;;;7.50;;
4957;SDS011;2494;51.872;9.688;2022-12-08T16:27:32;10.97;;;7.97;;
4957;SDS011;2494;51.872;9.688;2022-12-08T16:30:19;8.67;;;7.53;;
4957;SDS011;2494;51.872;9.688;2022-12-08T16:33:05;9.53;;;7.80;;
4957;SDS011;2494;51.872;9.688;2022-12-08T16:35:50;10.57;;;8.37;;
4957;SDS011;2494;51.872;9.688;2022-12-08T16:38:35;11.50;;;9.17;;
4957;SDS011;2494;51.872;9.688;2022-12-08T16:41:20;12.70;;;10.00;;
4957;SDS011;2494;51.872;9.688;2022-12-08T16:44:23;10.37;;;8.67;;
4957;SDS011;2494;51.872;9.688;2022-12-08T16:47:09;11.23;;;8.53;;
4957;SDS011;2494;51.872;9.688;2022-12-08T16:49:56;11.37;;;7.70;;
4957;SDS011;2494;51.872;9.688;2022-12-08T16:52:41;12.30;;;7.90;;
4957;SDS011;2494;51.872;9.688;2022-12-08T16:55:26;11.33;;;8.00;;
4957;SDS011;2494;51.872;9.688;2022-12-08T16:58:11;9.10;;;7.83;;
4957;SDS011;2494;51.872;9.688;2022-12-08T17:00:57;10.37;;;7.93;;
4957;SDS011;2494;51.872;9.688;2022-12-08T17:03:42;9.10;;;7.00;;
4957;SDS011;2494;51.872;9.688;2022-12-08T17:06:28;11.77;;;7.97;;
4957;SDS011;2494;51.872;9.688;2022-12-08T17:09:14;9.83;;;7.73;;
4957;SDS011;2494;51.872;9.688;2022-12-08T17:11:59;10.50;;;7.80;;
4957;SDS011;2494;51.872;9.688;2022-12-08T17:14:44;9.53;;;7.33;;